Parthenon, Arkansas
Current Conditions -  °F | °C
As of 1:53 PM on Wednesday 26 Nov 2014 (Local Time) from KHRO Reporting Station
Broken Clouds Broken Clouds  
Wind Chill: 50°   Ceiling: 7000
Heat Index: 50°   Visibility: 10mi
Dew Point: 27°   Wind: 21mph
Humidity: 41%   Direction: 300°WNW
Pressure: 30.01"   Gusts: 29mph
Location:  35.95°N, 93.24°W
Report Text: KHRO 261953Z AUTO 30018G25KT 10SM FEW060 BKN070 10/M03 A3001 RMK AO2 PK WND 31026/1901 SLP169 T01001028
Loading
Personal Weather Stations






























Interactive Weather Map New forecast layout! Learn more

10-Day Weather Forecast

Advertisements
Track Severe Weather on mobile